createdAt,value
2023-03-10T00:00:01.873Z,10.05
2023-03-10T00:01:09.315Z,10.08
2023-03-10T00:02:12.010Z,10.11
2023-03-10T00:03:13.832Z,10.05
2023-03-10T00:04:16.633Z,10.05
2023-03-10T00:05:19.806Z,10.04
2023-03-10T00:06:25.022Z,10.08
2023-03-10T00:07:26.770Z,10.07
2023-03-10T00:08:29.450Z,10.08
2023-03-10T00:09:31.365Z,10.06
2023-03-10T00:10:34.093Z,10.11
2023-03-10T00:11:35.802Z,10.11
2023-03-10T00:12:38.603Z,10.06
2023-03-10T00:13:42.963Z,9.95
2023-03-10T00:14:44.802Z,9.94
2023-03-10T00:15:49.203Z,9.94
2023-03-10T00:16:51.889Z,9.98
2023-03-10T00:17:55.639Z,9.89
2023-03-10T00:18:58.828Z,9.95
2023-03-10T00:20:00.642Z,9.86
2023-03-10T00:21:03.424Z,9.89
2023-03-10T00:22:05.230Z,9.84
2023-03-10T00:23:07.963Z,9.80
2023-03-10T00:24:09.865Z,9.74
2023-03-10T00:25:12.808Z,9.71
2023-03-10T00:26:18.247Z,9.77
2023-03-10T00:27:19.954Z,9.55
2023-03-10T00:28:22.771Z,9.67
2023-03-10T00:29:25.872Z,9.72
2023-03-10T00:30:30.674Z,9.80
2023-03-10T00:31:34.875Z,9.86
2023-03-10T00:32:37.662Z,9.79
2023-03-10T00:33:39.727Z,9.82
2023-03-10T00:34:42.443Z,9.80
2023-03-10T00:35:44.280Z,9.84
2023-03-10T00:36:47.227Z,9.69
2023-03-10T00:37:48.947Z,9.75
2023-03-10T00:38:52.911Z,9.80
2023-03-10T00:39:55.742Z,9.83
2023-03-10T00:40:59.883Z,9.86
2023-03-10T00:42:02.622Z,9.89
2023-03-10T00:43:04.354Z,9.89
2023-03-10T00:44:09.534Z,10.00
2023-03-10T00:45:12.759Z,9.98
2023-03-10T00:46:16.222Z,9.98
2023-03-10T00:47:17.967Z,9.96
2023-03-10T00:48:20.710Z,10.02
2023-03-10T00:49:23.587Z,9.97
2023-03-10T00:50:25.654Z,9.93
2023-03-10T00:51:28.423Z,9.91
2023-03-10T00:52:31.996Z,9.83
2023-03-10T00:53:35.564Z,9.94
2023-03-10T00:54:40.277Z,10.02
2023-03-10T00:55:42.988Z,10.10
2023-03-10T00:56:44.731Z,10.07
2023-03-10T00:57:47.407Z,10.13
2023-03-10T00:58:51.540Z,10.20
2023-03-10T00:59:54.311Z,10.08
2023-03-10T01:00:57.723Z,10.18
2023-03-10T01:02:00.571Z,10.23
2023-03-10T01:03:02.517Z,10.16
2023-03-10T01:04:06.798Z,10.10
2023-03-10T01:05:09.722Z,10.02
2023-03-10T01:06:12.789Z,9.98
2023-03-10T01:07:15.587Z,9.81
2023-03-10T01:08:18.059Z,9.90
2023-03-10T01:09:20.809Z,10.01
2023-03-10T01:10:23.001Z,10.01
2023-03-10T01:11:27.716Z,9.98
2023-03-10T01:12:29.410Z,10.01
2023-03-10T01:13:32.225Z,9.91
2023-03-10T01:14:33.936Z,9.88
2023-03-10T01:15:36.771Z,9.82
2023-03-10T01:16:40.879Z,9.84
2023-03-10T01:17:42.611Z,9.83
2023-03-10T01:18:46.000Z,9.84
2023-03-10T01:19:48.703Z,9.90
2023-03-10T01:20:50.552Z,9.97
2023-03-10T01:21:53.259Z,10.06
2023-03-10T01:22:54.963Z,10.00
2023-03-10T01:23:58.168Z,9.91
2023-03-10T01:24:59.991Z,9.84
2023-03-10T01:26:02.644Z,9.82
2023-03-10T01:27:05.395Z,9.92
2023-03-10T01:28:07.097Z,9.86
2023-03-10T01:29:09.757Z,9.87
2023-03-10T01:30:12.815Z,9.91
2023-03-10T01:31:15.993Z,9.98
2023-03-10T01:32:19.240Z,9.92
2023-03-10T01:33:21.990Z,9.95
2023-03-10T01:34:23.798Z,9.91
2023-03-10T01:35:26.510Z,9.78
2023-03-10T01:36:28.326Z,9.76
2023-03-10T01:37:31.082Z,9.83
2023-03-10T01:38:32.862Z,9.90
2023-03-10T01:39:35.628Z,9.89
2023-03-10T01:40:38.281Z,9.88
2023-03-10T01:41:41.349Z,9.90
2023-03-10T01:42:43.223Z,9.85
2023-03-10T01:43:48.602Z,9.83
2023-03-10T01:45:05.169Z,9.89
2023-03-10T01:46:39.056Z,9.90
2023-03-10T01:47:42.328Z,9.85
2023-03-10T01:48:45.043Z,9.78
2023-03-10T01:49:47.757Z,9.76
2023-03-10T01:50:52.774Z,9.81
2023-03-10T01:51:59.640Z,9.81
2023-03-10T01:53:01.383Z,9.85
2023-03-10T01:54:05.590Z,9.84
2023-03-10T01:55:11.506Z,9.90
2023-03-10T01:56:13.388Z,9.91
2023-03-10T01:57:18.242Z,9.90
2023-03-10T01:58:22.227Z,9.82
2023-03-10T01:59:25.249Z,9.77
2023-03-10T02:00:28.243Z,9.79
2023-03-10T02:01:31.884Z,9.80
2023-03-10T02:02:35.232Z,9.70
2023-03-10T02:03:43.420Z,9.75
2023-03-10T02:04:48.660Z,9.73
2023-03-10T02:05:54.291Z,9.62
2023-03-10T02:06:57.879Z,9.74
2023-03-10T02:07:59.996Z,9.72
2023-03-10T02:09:03.958Z,9.69
2023-03-10T02:10:07.576Z,9.67
2023-03-10T02:11:09.288Z,9.70
2023-03-10T02:12:13.459Z,9.76
2023-03-10T02:13:15.261Z,9.79
2023-03-10T02:14:19.114Z,9.84
2023-03-10T02:15:20.904Z,9.78
2023-03-10T02:16:24.294Z,9.78
2023-03-10T02:17:26.795Z,9.69
2023-03-10T02:18:31.629Z,9.79
2023-03-10T02:19:47.718Z,9.77
2023-03-10T02:20:57.782Z,9.62
2023-03-10T02:22:03.999Z,9.69
2023-03-10T02:23:06.710Z,9.71
2023-03-10T02:24:12.885Z,9.72
2023-03-10T02:25:26.363Z,9.77
2023-03-10T02:26:36.462Z,9.81
2023-03-10T02:27:41.314Z,9.78
2023-03-10T02:28:43.166Z,9.78
2023-03-10T02:29:58.978Z,9.73
2023-03-10T02:31:02.573Z,9.75
2023-03-10T02:32:18.044Z,9.69
2023-03-10T02:33:23.020Z,9.67
2023-03-10T02:34:25.868Z,9.66
2023-03-10T02:35:29.061Z,9.64
2023-03-10T02:36:30.867Z,9.71
2023-03-10T02:37:35.390Z,9.65
2023-03-10T02:38:37.044Z,9.66
2023-03-10T02:39:39.765Z,9.62
2023-03-10T02:40:46.215Z,9.64
2023-03-10T02:41:49.012Z,9.59
2023-03-10T02:42:52.281Z,9.45
2023-03-10T02:43:56.294Z,9.42
2023-03-10T02:44:58.138Z,9.48
2023-03-10T02:46:03.093Z,9.44
2023-03-10T02:47:05.147Z,9.41
2023-03-10T02:48:09.315Z,9.41
2023-03-10T02:49:11.244Z,9.41
2023-03-10T02:50:14.950Z,9.44
2023-03-10T02:51:19.081Z,9.32
2023-03-10T02:52:28.093Z,9.34
2023-03-10T02:53:30.547Z,9.32
2023-03-10T02:54:33.213Z,9.38
2023-03-10T02:55:34.905Z,9.37
2023-03-10T02:56:39.086Z,9.39
2023-03-10T02:57:40.815Z,9.40
2023-03-10T02:58:44.965Z,9.43
2023-03-10T02:59:46.639Z,9.40
2023-03-10T03:00:50.081Z,9.36
2023-03-10T03:01:52.796Z,9.28
2023-03-10T03:02:55.103Z,9.28
2023-03-10T03:03:57.975Z,9.18
2023-03-10T03:04:59.704Z,9.21
2023-03-10T03:06:02.437Z,9.19
2023-03-10T03:07:04.279Z,9.18
2023-03-10T03:08:08.035Z,9.21
2023-03-10T03:09:09.771Z,9.27
2023-03-10T03:10:13.260Z,9.21
2023-03-10T03:11:15.496Z,9.04
2023-03-10T03:12:18.165Z,8.99
2023-03-10T03:13:20.174Z,9.03
2023-03-10T03:14:24.410Z,9.04
2023-03-10T03:15:26.465Z,9.08
2023-03-10T03:16:29.230Z,9.13
2023-03-10T03:17:30.938Z,9.11
2023-03-10T03:18:33.825Z,9.12
2023-03-10T03:19:35.568Z,9.04
2023-03-10T03:20:40.903Z,9.12
2023-03-10T03:21:42.620Z,9.10
2023-03-10T03:22:46.351Z,9.12
2023-03-10T03:23:48.110Z,9.04
2023-03-10T03:24:50.802Z,9.04
2023-03-10T03:25:52.504Z,8.97
2023-03-10T03:26:55.216Z,8.94
2023-03-10T03:27:57.728Z,8.93
2023-03-10T03:29:00.444Z,8.98
2023-03-10T03:30:04.697Z,8.91
2023-03-10T03:31:07.373Z,8.92
2023-03-10T03:32:09.132Z,9.01
2023-03-10T03:33:11.810Z,8.91
2023-03-10T03:34:13.713Z,8.93
2023-03-10T03:35:18.096Z,8.88
2023-03-10T03:36:19.870Z,8.95
2023-03-10T03:37:22.509Z,8.99
2023-03-10T03:38:24.233Z,9.02
2023-03-10T03:39:27.038Z,9.05
2023-03-10T03:40:30.855Z,9.05
2023-03-10T03:41:33.616Z,8.95
2023-03-10T03:42:35.308Z,8.97
2023-03-10T03:43:38.233Z,8.91
2023-03-10T03:44:39.901Z,8.83
2023-03-10T03:45:43.994Z,8.91
2023-03-10T03:46:45.717Z,8.95
2023-03-10T03:47:48.554Z,8.90
2023-03-10T03:48:50.284Z,8.91
2023-03-10T03:49:52.992Z,8.95
2023-03-10T03:50:54.659Z,8.89
2023-03-10T03:51:57.368Z,8.86
2023-03-10T03:52:59.141Z,8.88
2023-03-10T03:54:01.863Z,8.73
2023-03-10T03:55:04.207Z,8.79
2023-03-10T03:56:07.375Z,8.75
2023-03-10T03:57:09.219Z,8.78
2023-03-10T03:58:11.844Z,8.81
2023-03-10T03:59:14.549Z,8.73
2023-03-10T04:00:18.826Z,8.64
2023-03-10T04:01:22.867Z,8.63
2023-03-10T04:02:24.670Z,8.63
2023-03-10T04:03:27.490Z,8.58
2023-03-10T04:04:29.215Z,8.54
2023-03-10T04:05:31.992Z,8.50
2023-03-10T04:06:33.732Z,8.50
2023-03-10T04:07:36.700Z,8.51
2023-03-10T04:08:38.420Z,8.42
2023-03-10T04:09:41.459Z,8.41
2023-03-10T04:10:43.124Z,8.39
2023-03-10T04:11:45.828Z,8.39
2023-03-10T04:12:47.544Z,8.44
2023-03-10T04:13:50.249Z,8.40
2023-03-10T04:14:51.954Z,8.48
2023-03-10T04:15:58.261Z,8.47
2023-03-10T04:17:01.534Z,8.49
2023-03-10T04:18:05.254Z,8.52
2023-03-10T04:19:07.643Z,8.48
2023-03-10T04:20:13.415Z,8.48
2023-03-10T04:21:17.568Z,8.51
2023-03-10T04:22:19.289Z,8.51
2023-03-10T04:23:22.168Z,8.44
2023-03-10T04:24:24.073Z,8.36
2023-03-10T04:25:26.727Z,8.29
2023-03-10T04:26:28.474Z,8.32
2023-03-10T04:27:31.928Z,8.40
2023-03-10T04:28:33.588Z,8.40
2023-03-10T04:29:36.287Z,8.40
2023-03-10T04:30:37.936Z,8.32
2023-03-10T04:31:40.952Z,8.30
2023-03-10T04:32:44.221Z,8.26
2023-03-10T04:33:47.440Z,8.33
2023-03-10T04:34:49.158Z,8.36
2023-03-10T04:35:52.698Z,8.38
2023-03-10T04:36:54.464Z,8.40
2023-03-10T04:37:57.108Z,8.39
2023-03-10T04:38:59.976Z,8.40
2023-03-10T04:40:08.173Z,8.41
2023-03-10T04:41:10.942Z,8.46
2023-03-10T04:42:12.651Z,8.49
2023-03-10T04:43:15.351Z,8.44
2023-03-10T04:44:28.394Z,8.47
2023-03-10T04:45:33.522Z,8.48
2023-03-10T04:46:35.396Z,8.46
2023-03-10T04:47:38.464Z,8.51
2023-03-10T04:48:41.556Z,8.52
2023-03-10T04:49:44.222Z,8.56
2023-03-10T04:50:45.965Z,8.54
2023-03-10T04:51:48.705Z,8.54
2023-03-10T04:52:50.519Z,8.49
2023-03-10T04:53:53.262Z,8.52
2023-03-10T04:54:55.040Z,8.54
2023-03-10T04:55:57.747Z,8.55
2023-03-10T04:56:59.438Z,8.57
2023-03-10T04:58:02.380Z,8.60
2023-03-10T04:59:04.291Z,8.62
2023-03-10T05:00:09.228Z,8.56
2023-03-10T05:01:11.549Z,8.58
2023-03-10T05:02:14.449Z,8.62
2023-03-10T05:03:16.545Z,8.64
2023-03-10T05:04:20.669Z,8.67
2023-03-10T05:05:22.391Z,8.71
2023-03-10T05:06:25.057Z,8.67
2023-03-10T05:07:26.759Z,8.67
2023-03-10T05:08:29.493Z,8.66
2023-03-10T05:09:31.186Z,8.70
2023-03-10T05:10:33.959Z,8.69
2023-03-10T05:11:35.816Z,8.67
2023-03-10T05:12:38.924Z,8.66
2023-03-10T05:13:40.892Z,8.72
2023-03-10T05:14:43.616Z,8.74
2023-03-10T05:15:45.353Z,8.74
2023-03-10T05:16:48.943Z,8.76
2023-03-10T05:17:51.106Z,8.73
2023-03-10T05:18:54.174Z,8.76
2023-03-10T05:19:57.618Z,8.76
2023-03-10T05:21:00.324Z,8.75
2023-03-10T05:22:02.553Z,8.69
2023-03-10T05:23:05.239Z,8.62
2023-03-10T05:24:07.491Z,8.64
2023-03-10T05:25:11.243Z,8.69
2023-03-10T05:26:13.325Z,8.68
2023-03-10T05:27:18.445Z,8.72
2023-03-10T05:28:20.216Z,8.74
2023-03-10T05:29:23.001Z,8.72
2023-03-10T05:30:24.797Z,8.73
2023-03-10T05:31:27.512Z,8.72
2023-03-10T05:32:29.265Z,8.72
2023-03-10T05:33:31.979Z,8.75
2023-03-10T05:34:33.792Z,8.73
2023-03-10T05:35:38.785Z,8.73
2023-03-10T05:36:40.544Z,8.75
2023-03-10T05:37:44.460Z,8.76
2023-03-10T05:38:46.210Z,8.76
2023-03-10T05:39:48.886Z,8.79
2023-03-10T05:40:50.568Z,8.80
2023-03-10T05:41:53.239Z,8.81
2023-03-10T05:42:54.924Z,8.81
2023-03-10T05:43:57.602Z,8.82
2023-03-10T05:44:59.282Z,8.82
2023-03-10T05:46:02.250Z,8.83
2023-03-10T05:47:05.121Z,8.85
2023-03-10T05:48:06.982Z,8.88
2023-03-10T05:49:09.811Z,8.86
2023-03-10T05:50:12.453Z,8.89
2023-03-10T05:51:16.514Z,8.85
2023-03-10T05:52:18.259Z,8.87
2023-03-10T05:53:21.144Z,8.88
2023-03-10T05:54:23.885Z,8.89
2023-03-10T05:55:28.579Z,8.90
2023-03-10T05:56:31.256Z,8.91
2023-03-10T05:57:32.915Z,8.92
2023-03-10T05:58:35.753Z,8.91
2023-03-10T05:59:37.450Z,8.86
2023-03-10T06:00:40.180Z,8.88
2023-03-10T06:01:41.940Z,8.92
2023-03-10T06:02:44.597Z,8.93
2023-03-10T06:03:46.387Z,8.91
2023-03-10T06:04:49.149Z,8.90
2023-03-10T06:05:50.880Z,8.88
2023-03-10T06:06:56.784Z,8.91
2023-03-10T06:07:59.874Z,8.93
2023-03-10T06:09:02.669Z,8.90
2023-03-10T06:10:05.657Z,8.93
2023-03-10T06:11:08.383Z,8.96
2023-03-10T06:12:10.174Z,8.94
2023-03-10T06:13:12.873Z,8.96
2023-03-10T06:14:14.663Z,8.97
2023-03-10T06:15:17.621Z,8.90
2023-03-10T06:16:19.558Z,8.93
2023-03-10T06:17:22.318Z,8.89
2023-03-10T06:18:24.502Z,8.93
2023-03-10T06:19:27.483Z,8.96
2023-03-10T06:20:29.162Z,8.92
2023-03-10T06:21:32.011Z,8.90
2023-03-10T06:22:35.097Z,8.90
2023-03-10T06:23:38.152Z,8.83
2023-03-10T06:24:39.846Z,8.74
2023-03-10T06:25:42.885Z,8.78
2023-03-10T06:26:44.627Z,8.82
2023-03-10T06:27:47.458Z,8.80
2023-03-10T06:28:49.221Z,8.76
2023-03-10T06:29:51.908Z,8.74
2023-03-10T06:30:57.291Z,8.73
2023-03-10T06:32:00.011Z,8.74
2023-03-10T06:33:02.339Z,8.76
2023-03-10T06:34:05.017Z,8.75
2023-03-10T06:35:07.210Z,8.75
2023-03-10T06:36:11.055Z,8.76
2023-03-10T06:37:12.860Z,8.78
2023-03-10T06:38:16.934Z,8.79
2023-03-10T06:39:19.656Z,8.81
2023-03-10T06:40:21.543Z,8.80
2023-03-10T06:41:24.566Z,8.77
2023-03-10T06:42:26.274Z,8.80
2023-03-10T06:43:29.020Z,8.81
2023-03-10T06:44:31.702Z,8.77
2023-03-10T06:45:34.406Z,8.78
2023-03-10T06:46:37.133Z,8.70
2023-03-10T06:47:38.851Z,8.67
2023-03-10T06:48:42.959Z,8.76
2023-03-10T06:49:44.634Z,8.77
2023-03-10T06:50:48.936Z,8.79
2023-03-10T06:51:50.607Z,8.72
2023-03-10T06:52:53.390Z,8.79
2023-03-10T06:53:57.570Z,8.83
2023-03-10T06:55:00.291Z,8.84
2023-03-10T06:56:03.486Z,8.84
2023-03-10T06:57:06.559Z,8.81
2023-03-10T06:58:09.202Z,8.82
2023-03-10T06:59:11.137Z,8.85
2023-03-10T07:00:15.802Z,8.88
2023-03-10T07:01:22.190Z,8.92
2023-03-10T07:02:24.892Z,8.95
2023-03-10T07:03:29.027Z,8.99
2023-03-10T07:04:30.852Z,8.99
2023-03-10T07:05:33.556Z,9.02
2023-03-10T07:06:36.469Z,8.93
2023-03-10T07:07:38.976Z,8.99
2023-03-10T07:08:41.682Z,8.97
2023-03-10T07:09:46.160Z,8.97
2023-03-10T07:10:47.995Z,8.98
2023-03-10T07:11:50.752Z,9.01
2023-03-10T07:12:55.299Z,9.00
2023-03-10T07:13:58.009Z,8.97
2023-03-10T07:14:59.850Z,9.00
2023-03-10T07:16:02.509Z,8.94
2023-03-10T07:17:04.398Z,8.94
2023-03-10T07:18:07.291Z,8.97
2023-03-10T07:19:08.957Z,9.02
2023-03-10T07:20:13.715Z,9.08
2023-03-10T07:21:18.713Z,9.06
2023-03-10T07:22:20.478Z,9.11
2023-03-10T07:23:23.703Z,9.11
2023-03-10T07:24:25.650Z,9.12
2023-03-10T07:25:29.986Z,9.16
2023-03-10T07:26:33.032Z,9.16
2023-03-10T07:27:34.775Z,9.21
2023-03-10T07:28:37.937Z,9.17
2023-03-10T07:29:40.644Z,9.19
2023-03-10T07:30:42.379Z,9.21
2023-03-10T07:31:45.881Z,9.19
2023-03-10T07:32:48.645Z,9.22
2023-03-10T07:33:51.448Z,9.24
2023-03-10T07:34:54.174Z,9.27
2023-03-10T07:35:55.878Z,9.28
2023-03-10T07:36:58.624Z,9.31
2023-03-10T07:38:00.349Z,9.36
2023-03-10T07:39:03.003Z,9.33
2023-03-10T07:40:05.935Z,9.34
2023-03-10T07:41:10.518Z,9.38
2023-03-10T07:42:13.310Z,9.37
2023-03-10T07:43:15.008Z,9.31
2023-03-10T07:44:18.232Z,9.34
2023-03-10T07:45:19.999Z,9.39
2023-03-10T07:46:23.401Z,9.40
2023-03-10T07:47:26.294Z,9.45
2023-03-10T07:48:28.004Z,9.42
2023-03-10T07:49:30.760Z,9.42
2023-03-10T07:50:33.436Z,9.40
2023-03-10T07:51:36.138Z,9.34
2023-03-10T07:52:37.893Z,9.34
2023-03-10T07:53:40.642Z,9.31
2023-03-10T07:54:44.237Z,9.42
2023-03-10T07:55:46.980Z,9.49
2023-03-10T07:56:51.146Z,9.54
2023-03-10T07:57:56.677Z,9.51
2023-03-10T07:58:59.813Z,9.50
2023-03-10T08:00:01.607Z,9.54
2023-03-10T08:01:04.619Z,9.50
2023-03-10T08:02:08.697Z,9.53
2023-03-10T08:03:10.375Z,9.45
2023-03-10T08:04:14.397Z,9.53
2023-03-10T08:05:16.761Z,9.53
2023-03-10T08:06:21.157Z,9.59
2023-03-10T08:07:23.350Z,9.62
2023-03-10T08:08:26.114Z,9.65
2023-03-10T08:09:28.525Z,9.69
2023-03-10T08:10:31.222Z,9.70
2023-03-10T08:11:34.091Z,9.66
2023-03-10T08:12:37.196Z,9.56
2023-03-10T08:13:40.549Z,9.61
2023-03-10T08:14:43.228Z,9.59
2023-03-10T08:15:44.988Z,9.55
2023-03-10T08:16:47.698Z,9.54
2023-03-10T08:17:50.379Z,9.49
2023-03-10T08:18:54.678Z,9.54
2023-03-10T08:19:57.084Z,9.54
2023-03-10T08:21:00.399Z,9.58
2023-03-10T08:22:03.147Z,9.54
2023-03-10T08:23:04.913Z,9.53
2023-03-10T08:24:07.695Z,9.47
2023-03-10T08:25:10.016Z,9.40
2023-03-10T08:26:15.904Z,9.48
2023-03-10T08:27:17.750Z,9.56
2023-03-10T08:28:21.823Z,9.39
2023-03-10T08:29:24.187Z,9.31
2023-03-10T08:30:26.913Z,9.32
2023-03-10T08:31:28.737Z,9.27
2023-03-10T08:32:34.080Z,9.18
2023-03-10T08:33:37.156Z,9.32
2023-03-10T08:34:40.127Z,9.38
2023-03-10T08:35:43.127Z,9.35
2023-03-10T08:36:44.889Z,9.40
2023-03-10T08:37:47.679Z,9.25
2023-03-10T08:38:50.088Z,9.28
2023-03-10T08:39:53.969Z,9.44
2023-03-10T08:40:55.741Z,9.42
2023-03-10T08:41:58.431Z,9.45
2023-03-10T08:43:00.159Z,9.54
2023-03-10T08:44:06.602Z,9.57
2023-03-10T08:45:09.910Z,9.55
2023-03-10T08:46:12.752Z,9.58
2023-03-10T08:47:15.508Z,9.59
2023-03-10T08:48:17.171Z,9.60
2023-03-10T08:49:21.328Z,9.53
2023-03-10T08:50:23.216Z,9.57
2023-03-10T08:51:26.253Z,9.59
2023-03-10T08:52:28.134Z,9.57
2023-03-10T08:53:31.074Z,9.48
2023-03-10T08:54:33.767Z,9.55
2023-03-10T08:55:35.509Z,9.52
2023-03-10T08:56:38.177Z,9.48
2023-03-10T08:57:40.874Z,9.55
2023-03-10T08:58:42.618Z,9.45
2023-03-10T08:59:46.681Z,9.46
2023-03-10T09:00:49.392Z,9.44
2023-03-10T09:01:51.185Z,9.53
2023-03-10T09:02:53.977Z,9.57
2023-03-10T09:03:56.228Z,9.59
2023-03-10T09:05:02.842Z,9.58
2023-03-10T09:06:04.907Z,9.62
2023-03-10T09:07:07.585Z,9.67
2023-03-10T09:08:09.324Z,9.77
2023-03-10T09:09:12.513Z,9.90
2023-03-10T09:10:14.163Z,9.96
2023-03-10T09:11:18.825Z,10.05
2023-03-10T09:12:21.725Z,10.20
2023-03-10T09:13:24.506Z,10.19
2023-03-10T09:14:26.180Z,10.17
2023-03-10T09:15:30.573Z,10.22
2023-03-10T09:16:33.538Z,10.24
2023-03-10T09:17:37.657Z,10.28
2023-03-10T09:18:40.550Z,10.27
2023-03-10T09:19:43.274Z,10.25
2023-03-10T09:20:45.399Z,10.25
2023-03-10T09:21:48.312Z,10.13
2023-03-10T09:22:49.968Z,9.95
2023-03-10T09:23:53.219Z,9.92
2023-03-10T09:24:56.242Z,9.91
2023-03-10T09:25:59.037Z,9.93
2023-03-10T09:27:01.704Z,9.71
2023-03-10T09:28:03.607Z,9.73
2023-03-10T09:29:06.599Z,9.75
2023-03-10T09:30:09.545Z,9.64
2023-03-10T09:31:17.934Z,9.69
2023-03-10T09:32:19.832Z,9.64
2023-03-10T09:33:23.514Z,9.69
2023-03-10T09:34:27.686Z,9.71
2023-03-10T09:35:29.571Z,9.52
2023-03-10T09:36:32.543Z,9.42
2023-03-10T09:37:34.322Z,9.34
2023-03-10T09:38:37.727Z,9.31
2023-03-10T09:39:39.392Z,9.31
2023-03-10T09:40:43.902Z,9.31
2023-03-10T09:42:04.279Z,9.36
2023-03-10T09:43:08.468Z,9.31
2023-03-10T09:44:23.700Z,9.35
2023-03-10T09:45:37.126Z,9.38
2023-03-10T09:46:44.776Z,9.38
2023-03-10T09:47:54.260Z,9.51
2023-03-10T09:49:03.478Z,9.53
2023-03-10T09:50:23.829Z,9.48
2023-03-10T09:51:29.170Z,9.42
2023-03-10T09:52:39.627Z,9.45
2023-03-10T09:53:52.074Z,9.38
2023-03-10T09:54:58.241Z,9.50
2023-03-10T09:56:01.318Z,9.51
2023-03-10T09:57:09.663Z,9.53
2023-03-10T09:58:16.719Z,9.60
2023-03-10T09:59:22.100Z,9.58
2023-03-10T10:00:27.544Z,9.42
2023-03-10T10:01:32.308Z,9.30
2023-03-10T10:02:41.602Z,9.45
2023-03-10T10:03:53.004Z,9.42
2023-03-10T10:04:58.734Z,9.31
2023-03-10T10:06:01.126Z,9.39
2023-03-10T10:07:08.973Z,9.39
2023-03-10T10:08:18.413Z,9.29
2023-03-10T10:09:27.939Z,9.18
2023-03-10T10:10:32.365Z,9.26
2023-03-10T10:11:35.242Z,9.08
2023-03-10T10:12:38.343Z,9.13
2023-03-10T10:13:42.375Z,9.19
2023-03-10T10:14:56.788Z,9.14
2023-03-10T10:16:21.438Z,9.26
2023-03-10T10:17:39.151Z,9.39
2023-03-10T10:18:49.693Z,9.30
2023-03-10T10:19:53.933Z,9.45
2023-03-10T10:21:01.110Z,9.45
2023-03-10T10:22:04.184Z,9.50
2023-03-10T10:23:14.919Z,9.57
2023-03-10T10:24:17.219Z,9.56
2023-03-10T10:25:21.805Z,9.61
2023-03-10T10:26:26.860Z,9.63
2023-03-10T10:27:31.104Z,9.78
2023-03-10T10:28:42.059Z,9.77
2023-03-10T10:29:47.121Z,9.81
2023-03-10T10:30:50.212Z,9.80
2023-03-10T10:32:07.974Z,9.91
2023-03-10T10:33:14.261Z,9.89
2023-03-10T10:34:23.398Z,9.91
2023-03-10T10:35:27.025Z,9.99
2023-03-10T10:36:31.882Z,9.95
2023-03-10T10:37:39.499Z,9.96
2023-03-10T10:38:48.715Z,10.02
2023-03-10T10:39:54.734Z,10.03
2023-03-10T10:41:05.816Z,10.13
2023-03-10T10:42:14.974Z,10.19
2023-03-10T10:43:19.486Z,9.98
2023-03-10T10:44:22.426Z,9.90
2023-03-10T10:45:26.048Z,9.91
2023-03-10T10:46:30.851Z,9.92
2023-03-10T10:47:35.020Z,9.90
2023-03-10T10:48:38.701Z,9.89
2023-03-10T10:49:42.803Z,9.80
2023-03-10T10:50:53.114Z,9.82
2023-03-10T10:52:00.651Z,9.78
2023-03-10T10:53:21.151Z,9.79
2023-03-10T10:54:28.277Z,9.76
2023-03-10T10:55:34.385Z,9.81
2023-03-10T10:56:37.066Z,9.78
2023-03-10T10:57:46.071Z,9.77
2023-03-10T10:59:03.022Z,9.56
2023-03-10T11:00:19.039Z,9.57
2023-03-10T11:01:22.588Z,9.53
2023-03-10T11:02:31.072Z,9.42
2023-03-10T11:03:36.765Z,9.43
2023-03-10T11:04:45.823Z,9.48
2023-03-10T11:05:47.527Z,9.41
2023-03-10T11:06:50.727Z,9.43
2023-03-10T11:07:52.623Z,9.43
2023-03-10T11:09:08.899Z,9.44
2023-03-10T11:10:13.722Z,9.49
2023-03-10T11:11:23.357Z,9.53
2023-03-10T11:12:30.471Z,9.51
2023-03-10T11:13:39.225Z,9.52
2023-03-10T11:14:56.544Z,9.54
2023-03-10T11:16:04.529Z,9.55
2023-03-10T11:17:13.569Z,9.54
2023-03-10T11:18:20.429Z,9.47
2023-03-10T11:19:26.065Z,9.57
2023-03-10T11:20:32.824Z,9.50
2023-03-10T11:21:38.609Z,9.50
2023-03-10T11:22:43.532Z,9.55
2023-03-10T11:23:51.158Z,9.55
2023-03-10T11:24:58.840Z,9.58
2023-03-10T11:26:05.388Z,9.57
2023-03-10T11:27:09.613Z,9.60
2023-03-10T11:28:38.021Z,9.65
2023-03-10T11:29:51.583Z,9.60
2023-03-10T11:31:00.193Z,9.62
2023-03-10T11:32:08.038Z,9.53
2023-03-10T11:33:17.639Z,9.51
2023-03-10T11:34:21.340Z,9.50
2023-03-10T11:35:29.192Z,9.55
2023-03-10T11:36:49.764Z,9.53
2023-03-10T11:38:04.583Z,9.47
2023-03-10T11:39:12.518Z,9.50
2023-03-10T11:40:19.795Z,9.46
2023-03-10T11:41:25.441Z,9.49
2023-03-10T11:42:31.610Z,9.61
2023-03-10T11:43:43.643Z,9.53
2023-03-10T11:44:52.677Z,9.58
2023-03-10T11:45:55.175Z,9.55
2023-03-10T11:47:02.091Z,9.64
2023-03-10T11:48:18.944Z,9.73
2023-03-10T11:49:27.170Z,9.68
2023-03-10T11:50:33.464Z,9.56
2023-03-10T11:51:40.407Z,9.42
2023-03-10T11:52:43.877Z,9.37
2023-03-10T11:53:47.818Z,9.20
2023-03-10T11:54:53.181Z,9.22
2023-03-10T11:55:55.316Z,9.17
2023-03-10T11:56:58.932Z,9.29
2023-03-10T11:58:01.412Z,9.33
2023-03-10T11:59:09.989Z,9.40
2023-03-10T12:00:19.435Z,9.43
2023-03-10T12:01:25.584Z,9.42
2023-03-10T12:02:33.896Z,9.46
2023-03-10T12:03:42.473Z,9.55
2023-03-10T12:04:48.365Z,9.61
2023-03-10T12:05:53.218Z,9.65
2023-03-10T12:07:00.640Z,9.75
2023-03-10T12:08:04.496Z,9.73
2023-03-10T12:09:09.047Z,9.73
2023-03-10T12:10:15.583Z,9.70
2023-03-10T12:11:20.682Z,9.77
2023-03-10T12:12:26.449Z,9.68
2023-03-10T12:13:43.730Z,9.79
2023-03-10T12:14:47.629Z,9.81
2023-03-10T12:15:50.780Z,9.81
2023-03-10T12:16:53.881Z,9.83
2023-03-10T12:17:55.706Z,9.94
2023-03-10T12:18:58.929Z,9.89
2023-03-10T12:20:10.668Z,9.86
2023-03-10T12:21:19.893Z,9.84
2023-03-10T12:22:38.707Z,9.77
2023-03-10T12:23:42.295Z,9.78
2023-03-10T12:24:46.117Z,9.81
2023-03-10T12:25:48.602Z,9.74
2023-03-10T12:27:05.165Z,9.78
2023-03-10T12:28:24.438Z,9.71
2023-03-10T12:29:39.520Z,9.72
2023-03-10T12:30:45.785Z,9.67
2023-03-10T12:31:49.622Z,9.70
2023-03-10T12:32:52.398Z,9.66
2023-03-10T12:34:09.076Z,9.72
2023-03-10T12:35:44.596Z,9.66
2023-03-10T12:36:48.430Z,9.66
2023-03-10T12:38:42.670Z,9.54
2023-03-10T12:39:46.000Z,9.55
2023-03-10T12:40:48.662Z,9.61
2023-03-10T12:41:52.199Z,9.65
2023-03-10T12:42:53.948Z,9.64
2023-03-10T12:44:00.149Z,9.45
2023-03-10T12:45:10.315Z,9.42
2023-03-10T12:46:16.347Z,9.42
2023-03-10T12:47:26.556Z,9.37
2023-03-10T12:48:29.858Z,9.26
2023-03-10T12:49:34.757Z,9.26
2023-03-10T12:50:45.573Z,9.25
2023-03-10T12:51:49.840Z,9.32
2023-03-10T12:52:55.980Z,9.28
2023-03-10T12:54:01.620Z,9.33
2023-03-10T12:55:17.994Z,9.22
2023-03-10T12:56:22.393Z,9.19
2023-03-10T12:57:30.789Z,9.15
2023-03-10T12:58:34.586Z,9.12
2023-03-10T12:59:40.167Z,9.06
2023-03-10T13:00:49.966Z,9.14
2023-03-10T13:01:56.254Z,9.13
2023-03-10T13:03:02.847Z,9.11
2023-03-10T13:04:06.575Z,9.11
2023-03-10T13:05:20.412Z,9.10
2023-03-10T13:06:24.572Z,9.08
2023-03-10T13:07:29.601Z,9.07
2023-03-10T13:08:44.668Z,9.13
2023-03-10T13:09:48.103Z,9.07
2023-03-10T13:10:53.191Z,8.98
2023-03-10T13:11:57.586Z,8.96
2023-03-10T13:13:03.243Z,8.94
2023-03-10T13:14:09.681Z,8.91
2023-03-10T13:15:24.617Z,8.87
2023-03-10T13:16:26.639Z,8.87
2023-03-10T13:17:30.828Z,8.93
2023-03-10T13:18:33.688Z,8.84
2023-03-10T13:19:37.611Z,8.84
2023-03-10T13:20:40.314Z,8.77
2023-03-10T13:21:48.218Z,8.80
2023-03-10T13:22:54.639Z,8.79
2023-03-10T13:23:59.102Z,8.83
2023-03-10T13:25:03.005Z,8.73
2023-03-10T13:26:07.949Z,8.77
2023-03-10T13:27:14.349Z,8.81
2023-03-10T13:28:17.056Z,8.74
2023-03-10T13:29:20.032Z,8.75
2023-03-10T13:30:24.036Z,8.77
2023-03-10T13:31:28.591Z,8.68
2023-03-10T13:32:31.236Z,8.71
2023-03-10T13:33:43.053Z,8.63
2023-03-10T13:34:49.599Z,8.64
2023-03-10T13:35:52.684Z,8.70
2023-03-10T13:37:03.357Z,8.69
2023-03-10T13:38:13.466Z,8.64
2023-03-10T13:39:48.175Z,8.51
2023-03-10T13:41:00.103Z,8.60
2023-03-10T13:42:02.965Z,8.48
2023-03-10T13:43:08.007Z,8.50
2023-03-10T13:44:17.501Z,8.46
2023-03-10T13:45:24.433Z,8.49
2023-03-10T13:46:27.837Z,8.50
2023-03-10T13:47:31.962Z,8.44
2023-03-10T13:48:34.156Z,8.46
2023-03-10T13:49:37.431Z,8.43
2023-03-10T13:50:40.133Z,8.46
2023-03-10T13:51:53.750Z,8.52
2023-03-10T13:52:59.462Z,8.58
2023-03-10T13:54:13.751Z,8.62
2023-03-10T13:55:18.269Z,8.63
2023-03-10T13:56:22.731Z,8.59
2023-03-10T13:57:29.055Z,8.59
2023-03-10T13:58:32.419Z,8.59
2023-03-10T13:59:36.160Z,8.63
2023-03-10T14:00:38.982Z,8.62
2023-03-10T14:01:45.321Z,8.53
2023-03-10T14:02:49.343Z,8.51
2023-03-10T14:03:53.485Z,8.53
2023-03-10T14:04:57.355Z,8.57
2023-03-10T14:05:59.071Z,8.54
2023-03-10T14:07:09.037Z,8.56
2023-03-10T14:08:24.263Z,8.44
2023-03-10T14:09:27.185Z,8.43
2023-03-10T14:10:31.614Z,8.42
2023-03-10T14:11:36.067Z,8.37
2023-03-10T14:12:40.704Z,8.42
2023-03-10T14:13:44.223Z,8.41
2023-03-10T14:14:46.889Z,8.39
2023-03-10T14:15:54.009Z,8.32